sensor_id;sensor_type;location;lat;lon;timestamp;P1;durP1;ratioP1;P2;durP2;ratioP2
49376;SDS011;35253;34.688;33.040;2023-06-14T00:00:52;8.68;;;5.95;;
49376;SDS011;35253;34.688;33.040;2023-06-14T00:03:18;6.93;;;6.22;;
49376;SDS011;35253;34.688;33.040;2023-06-14T00:05:47;8.43;;;6.05;;
49376;SDS011;35253;34.688;33.040;2023-06-14T00:08:13;6.45;;;5.60;;
49376;SDS011;35253;34.688;33.040;2023-06-14T00:10:39;5.82;;;5.22;;
49376;SDS011;35253;34.688;33.040;2023-06-14T00:13:07;6.35;;;5.80;;
49376;SDS011;35253;34.688;33.040;2023-06-14T00:15:34;7.35;;;5.53;;
49376;SDS011;35253;34.688;33.040;2023-06-14T00:18:00;10.07;;;5.70;;
49376;SDS011;35253;34.688;33.040;2023-06-14T00:20:26;9.38;;;6.78;;
49376;SDS011;35253;34.688;33.040;2023-06-14T00:22:53;6.55;;;5.80;;
49376;SDS011;35253;34.688;33.040;2023-06-14T00:25:21;9.18;;;6.80;;
49376;SDS011;35253;34.688;33.040;2023-06-14T00:27:50;8.60;;;6.05;;
49376;SDS011;35253;34.688;33.040;2023-06-14T00:30:16;9.13;;;6.88;;
49376;SDS011;35253;34.688;33.040;2023-06-14T00:32:42;8.32;;;6.22;;
49376;SDS011;35253;34.688;33.040;2023-06-14T00:35:09;5.95;;;5.03;;
49376;SDS011;35253;34.688;33.040;2023-06-14T00:37:35;6.60;;;5.78;;
49376;SDS011;35253;34.688;33.040;2023-06-14T00:40:01;7.10;;;6.35;;
49376;SDS011;35253;34.688;33.040;2023-06-14T00:42:27;11.07;;;6.50;;
49376;SDS011;35253;34.688;33.040;2023-06-14T00:44:53;10.93;;;5.15;;
49376;SDS011;35253;34.688;33.040;2023-06-14T00:47:20;8.13;;;5.50;;
49376;SDS011;35253;34.688;33.040;2023-06-14T00:49:47;7.72;;;6.03;;
49376;SDS011;35253;34.688;33.040;2023-06-14T00:52:16;6.05;;;5.45;;
49376;SDS011;35253;34.688;33.040;2023-06-14T00:54:43;10.73;;;5.75;;
49376;SDS011;35253;34.688;33.040;2023-06-14T00:57:09;10.23;;;5.90;;
49376;SDS011;35253;34.688;33.040;2023-06-14T00:59:42;9.85;;;5.82;;
49376;SDS011;35253;34.688;33.040;2023-06-14T01:02:10;8.10;;;5.65;;
49376;SDS011;35253;34.688;33.040;2023-06-14T01:04:36;7.75;;;5.18;;
49376;SDS011;35253;34.688;33.040;2023-06-14T01:07:07;9.70;;;5.45;;
49376;SDS011;35253;34.688;33.040;2023-06-14T01:12:26;8.48;;;6.07;;
49376;SDS011;35253;34.688;33.040;2023-06-14T01:15:00;8.40;;;6.00;;
49376;SDS011;35253;34.688;33.040;2023-06-14T01:17:27;8.20;;;5.93;;
49376;SDS011;35253;34.688;33.040;2023-06-14T01:20:01;12.13;;;7.35;;
49376;SDS011;35253;34.688;33.040;2023-06-14T01:22:28;13.90;;;6.90;;
49376;SDS011;35253;34.688;33.040;2023-06-14T01:24:54;5.93;;;5.43;;
49376;SDS011;35253;34.688;33.040;2023-06-14T01:27:23;7.43;;;6.73;;
49376;SDS011;35253;34.688;33.040;2023-06-14T01:29:54;5.82;;;5.20;;
49376;SDS011;35253;34.688;33.040;2023-06-14T01:32:26;5.97;;;5.45;;
49376;SDS011;35253;34.688;33.040;2023-06-14T01:34:53;7.75;;;5.53;;
49376;SDS011;35253;34.688;33.040;2023-06-14T01:37:19;10.93;;;6.38;;
49376;SDS011;35253;34.688;33.040;2023-06-14T01:39:47;6.88;;;5.97;;
49376;SDS011;35253;34.688;33.040;2023-06-14T01:42:17;6.80;;;6.13;;
49376;SDS011;35253;34.688;33.040;2023-06-14T01:44:43;7.03;;;5.63;;
49376;SDS011;35253;34.688;33.040;2023-06-14T01:47:10;6.90;;;5.97;;
49376;SDS011;35253;34.688;33.040;2023-06-14T01:49:38;9.73;;;6.00;;
49376;SDS011;35253;34.688;33.040;2023-06-14T01:52:04;8.80;;;6.78;;
49376;SDS011;35253;34.688;33.040;2023-06-14T01:54:29;6.80;;;5.95;;
49376;SDS011;35253;34.688;33.040;2023-06-14T01:56:56;7.70;;;5.75;;
49376;SDS011;35253;34.688;33.040;2023-06-14T01:59:22;7.55;;;5.97;;
49376;SDS011;35253;34.688;33.040;2023-06-14T02:01:47;7.97;;;6.00;;
49376;SDS011;35253;34.688;33.040;2023-06-14T02:04:13;7.82;;;5.75;;
49376;SDS011;35253;34.688;33.040;2023-06-14T02:06:38;6.18;;;5.45;;
49376;SDS011;35253;34.688;33.040;2023-06-14T02:09:04;7.50;;;5.93;;
49376;SDS011;35253;34.688;33.040;2023-06-14T02:11:30;8.35;;;5.90;;
49376;SDS011;35253;34.688;33.040;2023-06-14T02:13:56;6.95;;;6.25;;
49376;SDS011;35253;34.688;33.040;2023-06-14T02:16:21;7.45;;;6.13;;
49376;SDS011;35253;34.688;33.040;2023-06-14T02:18:47;11.10;;;6.20;;
49376;SDS011;35253;34.688;33.040;2023-06-14T02:21:13;7.00;;;5.82;;
49376;SDS011;35253;34.688;33.040;2023-06-14T02:23:39;8.75;;;6.35;;
49376;SDS011;35253;34.688;33.040;2023-06-14T02:26:05;14.82;;;6.10;;
49376;SDS011;35253;34.688;33.040;2023-06-14T02:28:31;8.35;;;6.45;;
49376;SDS011;35253;34.688;33.040;2023-06-14T02:30:57;10.20;;;6.88;;
49376;SDS011;35253;34.688;33.040;2023-06-14T02:33:22;7.50;;;6.43;;
49376;SDS011;35253;34.688;33.040;2023-06-14T02:35:48;6.47;;;5.88;;
49376;SDS011;35253;34.688;33.040;2023-06-14T02:38:15;9.18;;;6.03;;
49376;SDS011;35253;34.688;33.040;2023-06-14T02:40:40;8.80;;;6.30;;
49376;SDS011;35253;34.688;33.040;2023-06-14T02:43:07;8.52;;;6.10;;
49376;SDS011;35253;34.688;33.040;2023-06-14T02:45:33;8.60;;;6.78;;
49376;SDS011;35253;34.688;33.040;2023-06-14T02:47:59;6.07;;;5.57;;
49376;SDS011;35253;34.688;33.040;2023-06-14T02:50:25;9.95;;;7.32;;
49376;SDS011;35253;34.688;33.040;2023-06-14T02:52:53;12.93;;;7.22;;
49376;SDS011;35253;34.688;33.040;2023-06-14T02:55:21;7.05;;;5.97;;
49376;SDS011;35253;34.688;33.040;2023-06-14T02:57:46;7.43;;;6.22;;
49376;SDS011;35253;34.688;33.040;2023-06-14T03:00:13;6.43;;;5.82;;
49376;SDS011;35253;34.688;33.040;2023-06-14T03:02:39;7.57;;;5.47;;
49376;SDS011;35253;34.688;33.040;2023-06-14T03:05:04;13.05;;;6.15;;
49376;SDS011;35253;34.688;33.040;2023-06-14T03:07:32;6.57;;;5.97;;
49376;SDS011;35253;34.688;33.040;2023-06-14T03:09:57;8.10;;;6.50;;
49376;SDS011;35253;34.688;33.040;2023-06-14T03:12:23;10.10;;;6.90;;
49376;SDS011;35253;34.688;33.040;2023-06-14T03:14:50;7.45;;;6.45;;
49376;SDS011;35253;34.688;33.040;2023-06-14T03:17:16;9.32;;;5.78;;
49376;SDS011;35253;34.688;33.040;2023-06-14T03:19:42;10.38;;;6.18;;
49376;SDS011;35253;34.688;33.040;2023-06-14T03:22:08;10.50;;;6.95;;
49376;SDS011;35253;34.688;33.040;2023-06-14T03:24:34;12.88;;;6.55;;
49376;SDS011;35253;34.688;33.040;2023-06-14T03:27:02;9.35;;;7.28;;
49376;SDS011;35253;34.688;33.040;2023-06-14T03:29:28;10.35;;;6.47;;
49376;SDS011;35253;34.688;33.040;2023-06-14T03:32:11;11.82;;;5.93;;
49376;SDS011;35253;34.688;33.040;2023-06-14T03:34:37;10.57;;;6.35;;
49376;SDS011;35253;34.688;33.040;2023-06-14T03:37:06;7.37;;;5.87;;
49376;SDS011;35253;34.688;33.040;2023-06-14T03:39:31;8.15;;;6.07;;
49376;SDS011;35253;34.688;33.040;2023-06-14T03:41:58;7.68;;;5.25;;
49376;SDS011;35253;34.688;33.040;2023-06-14T03:44:24;11.90;;;5.93;;
49376;SDS011;35253;34.688;33.040;2023-06-14T03:46:51;7.15;;;5.78;;
49376;SDS011;35253;34.688;33.040;2023-06-14T03:49:17;9.95;;;6.45;;
49376;SDS011;35253;34.688;33.040;2023-06-14T03:51:44;9.90;;;6.40;;
49376;SDS011;35253;34.688;33.040;2023-06-14T03:54:10;6.32;;;5.40;;
49376;SDS011;35253;34.688;33.040;2023-06-14T03:56:35;8.32;;;6.20;;
49376;SDS011;35253;34.688;33.040;2023-06-14T03:59:01;6.10;;;5.30;;
49376;SDS011;35253;34.688;33.040;2023-06-14T04:01:27;13.43;;;6.90;;
49376;SDS011;35253;34.688;33.040;2023-06-14T04:03:57;9.40;;;5.95;;
49376;SDS011;35253;34.688;33.040;2023-06-14T04:06:23;8.50;;;5.35;;
49376;SDS011;35253;34.688;33.040;2023-06-14T04:08:50;7.35;;;6.18;;
49376;SDS011;35253;34.688;33.040;2023-06-14T04:11:17;11.35;;;6.72;;
49376;SDS011;35253;34.688;33.040;2023-06-14T04:13:43;9.63;;;5.10;;
49376;SDS011;35253;34.688;33.040;2023-06-14T04:16:09;8.88;;;5.35;;
49376;SDS011;35253;34.688;33.040;2023-06-14T04:18:35;6.15;;;5.63;;
49376;SDS011;35253;34.688;33.040;2023-06-14T04:21:01;6.72;;;5.03;;
49376;SDS011;35253;34.688;33.040;2023-06-14T04:23:26;11.30;;;6.43;;
49376;SDS011;35253;34.688;33.040;2023-06-14T04:25:53;7.80;;;5.88;;
49376;SDS011;35253;34.688;33.040;2023-06-14T04:28:19;9.32;;;4.97;;
49376;SDS011;35253;34.688;33.040;2023-06-14T04:30:45;11.05;;;7.80;;
49376;SDS011;35253;34.688;33.040;2023-06-14T04:33:12;5.25;;;4.65;;
49376;SDS011;35253;34.688;33.040;2023-06-14T04:35:38;5.90;;;4.80;;
49376;SDS011;35253;34.688;33.040;2023-06-14T04:38:05;6.75;;;5.47;;
49376;SDS011;35253;34.688;33.040;2023-06-14T04:40:34;7.40;;;5.97;;
49376;SDS011;35253;34.688;33.040;2023-06-14T04:43:11;10.98;;;5.15;;
49376;SDS011;35253;34.688;33.040;2023-06-14T04:45:40;12.68;;;8.13;;
49376;SDS011;35253;34.688;33.040;2023-06-14T04:48:10;15.05;;;7.43;;
49376;SDS011;35253;34.688;33.040;2023-06-14T04:50:35;9.52;;;6.22;;
49376;SDS011;35253;34.688;33.040;2023-06-14T04:53:01;10.73;;;5.65;;
49376;SDS011;35253;34.688;33.040;2023-06-14T04:55:28;10.38;;;6.15;;
49376;SDS011;35253;34.688;33.040;2023-06-14T04:57:53;14.07;;;7.82;;
49376;SDS011;35253;34.688;33.040;2023-06-14T05:00:19;11.30;;;5.95;;
49376;SDS011;35253;34.688;33.040;2023-06-14T05:02:46;12.07;;;6.25;;
49376;SDS011;35253;34.688;33.040;2023-06-14T05:05:14;11.13;;;7.43;;
49376;SDS011;35253;34.688;33.040;2023-06-14T05:07:40;13.13;;;6.80;;
49376;SDS011;35253;34.688;33.040;2023-06-14T05:10:06;9.07;;;6.97;;
49376;SDS011;35253;34.688;33.040;2023-06-14T05:12:32;9.07;;;5.90;;
49376;SDS011;35253;34.688;33.040;2023-06-14T05:14:59;9.73;;;5.72;;
49376;SDS011;35253;34.688;33.040;2023-06-14T05:17:25;18.48;;;9.00;;
49376;SDS011;35253;34.688;33.040;2023-06-14T05:19:53;9.07;;;7.15;;
49376;SDS011;35253;34.688;33.040;2023-06-14T05:22:20;22.38;;;7.05;;
49376;SDS011;35253;34.688;33.040;2023-06-14T05:24:46;10.77;;;6.65;;
49376;SDS011;35253;34.688;33.040;2023-06-14T05:27:13;9.27;;;6.53;;
49376;SDS011;35253;34.688;33.040;2023-06-14T05:29:39;13.30;;;8.82;;
49376;SDS011;35253;34.688;33.040;2023-06-14T05:32:05;12.80;;;8.00;;
49376;SDS011;35253;34.688;33.040;2023-06-14T05:34:31;7.80;;;6.50;;
49376;SDS011;35253;34.688;33.040;2023-06-14T05:36:57;8.38;;;5.57;;
49376;SDS011;35253;34.688;33.040;2023-06-14T05:39:22;7.30;;;6.32;;
49376;SDS011;35253;34.688;33.040;2023-06-14T05:41:49;11.38;;;6.97;;
49376;SDS011;35253;34.688;33.040;2023-06-14T05:44:15;7.25;;;6.55;;
49376;SDS011;35253;34.688;33.040;2023-06-14T05:46:40;8.98;;;6.15;;
49376;SDS011;35253;34.688;33.040;2023-06-14T05:49:06;9.57;;;6.72;;
49376;SDS011;35253;34.688;33.040;2023-06-14T05:51:32;18.05;;;6.78;;
49376;SDS011;35253;34.688;33.040;2023-06-14T05:53:58;14.25;;;7.72;;
49376;SDS011;35253;34.688;33.040;2023-06-14T05:56:24;8.70;;;7.00;;
49376;SDS011;35253;34.688;33.040;2023-06-14T05:58:51;9.85;;;7.22;;
49376;SDS011;35253;34.688;33.040;2023-06-14T06:01:17;10.80;;;6.82;;
49376;SDS011;35253;34.688;33.040;2023-06-14T06:03:43;7.93;;;6.18;;
49376;SDS011;35253;34.688;33.040;2023-06-14T06:06:12;12.95;;;6.45;;
49376;SDS011;35253;34.688;33.040;2023-06-14T06:08:38;16.35;;;7.45;;
49376;SDS011;35253;34.688;33.040;2023-06-14T06:11:03;8.88;;;6.18;;
49376;SDS011;35253;34.688;33.040;2023-06-14T06:13:29;11.07;;;6.82;;
49376;SDS011;35253;34.688;33.040;2023-06-14T06:15:55;10.32;;;6.97;;
49376;SDS011;35253;34.688;33.040;2023-06-14T06:18:21;10.48;;;6.45;;
49376;SDS011;35253;34.688;33.040;2023-06-14T06:20:47;7.50;;;6.45;;
49376;SDS011;35253;34.688;33.040;2023-06-14T06:23:12;12.73;;;6.28;;
49376;SDS011;35253;34.688;33.040;2023-06-14T06:25:38;9.55;;;6.43;;
49376;SDS011;35253;34.688;33.040;2023-06-14T06:28:04;10.65;;;5.80;;
49376;SDS011;35253;34.688;33.040;2023-06-14T06:30:29;12.85;;;5.40;;
49376;SDS011;35253;34.688;33.040;2023-06-14T06:32:55;16.00;;;6.70;;
49376;SDS011;35253;34.688;33.040;2023-06-14T06:35:21;9.77;;;6.80;;
49376;SDS011;35253;34.688;33.040;2023-06-14T06:37:46;12.65;;;7.07;;
49376;SDS011;35253;34.688;33.040;2023-06-14T06:40:12;15.27;;;7.35;;
49376;SDS011;35253;34.688;33.040;2023-06-14T06:42:38;11.20;;;8.55;;
49376;SDS011;35253;34.688;33.040;2023-06-14T06:45:04;10.05;;;7.55;;
49376;SDS011;35253;34.688;33.040;2023-06-14T06:47:31;7.28;;;6.32;;
49376;SDS011;35253;34.688;33.040;2023-06-14T06:49:56;8.35;;;7.35;;
49376;SDS011;35253;34.688;33.040;2023-06-14T06:52:22;8.52;;;7.10;;
49376;SDS011;35253;34.688;33.040;2023-06-14T06:54:48;11.50;;;8.15;;
49376;SDS011;35253;34.688;33.040;2023-06-14T06:57:14;10.13;;;7.57;;
49376;SDS011;35253;34.688;33.040;2023-06-14T06:59:40;11.32;;;10.23;;
49376;SDS011;35253;34.688;33.040;2023-06-14T07:02:05;10.00;;;6.53;;
49376;SDS011;35253;34.688;33.040;2023-06-14T07:04:31;8.10;;;6.30;;
49376;SDS011;35253;34.688;33.040;2023-06-14T07:06:57;8.68;;;7.63;;
49376;SDS011;35253;34.688;33.040;2023-06-14T07:09:23;10.90;;;7.22;;
49376;SDS011;35253;34.688;33.040;2023-06-14T07:11:49;11.73;;;9.52;;
49376;SDS011;35253;34.688;33.040;2023-06-14T07:14:15;11.23;;;7.95;;
49376;SDS011;35253;34.688;33.040;2023-06-14T07:16:41;9.65;;;8.65;;
49376;SDS011;35253;34.688;33.040;2023-06-14T07:19:08;7.93;;;6.38;;
49376;SDS011;35253;34.688;33.040;2023-06-14T07:21:34;9.23;;;8.32;;
49376;SDS011;35253;34.688;33.040;2023-06-14T07:24:00;16.92;;;7.70;;
49376;SDS011;35253;34.688;33.040;2023-06-14T07:26:26;8.98;;;6.75;;
49376;SDS011;35253;34.688;33.040;2023-06-14T07:28:52;8.38;;;7.43;;
49376;SDS011;35253;34.688;33.040;2023-06-14T07:31:17;20.77;;;10.52;;
49376;SDS011;35253;34.688;33.040;2023-06-14T07:33:44;11.05;;;7.28;;
49376;SDS011;35253;34.688;33.040;2023-06-14T07:36:10;11.63;;;8.57;;
49376;SDS011;35253;34.688;33.040;2023-06-14T07:38:36;11.50;;;7.38;;
49376;SDS011;35253;34.688;33.040;2023-06-14T07:41:02;8.43;;;7.07;;
49376;SDS011;35253;34.688;33.040;2023-06-14T07:43:28;12.73;;;7.82;;
49376;SDS011;35253;34.688;33.040;2023-06-14T07:45:54;11.57;;;7.82;;
49376;SDS011;35253;34.688;33.040;2023-06-14T07:48:20;11.57;;;7.57;;
49376;SDS011;35253;34.688;33.040;2023-06-14T07:50:46;9.35;;;6.85;;
49376;SDS011;35253;34.688;33.040;2023-06-14T07:53:12;10.65;;;8.05;;
49376;SDS011;35253;34.688;33.040;2023-06-14T07:55:37;7.88;;;6.75;;
49376;SDS011;35253;34.688;33.040;2023-06-14T07:58:04;8.38;;;6.50;;
49376;SDS011;35253;34.688;33.040;2023-06-14T08:00:33;13.27;;;6.93;;
49376;SDS011;35253;34.688;33.040;2023-06-14T08:02:59;13.57;;;7.18;;
49376;SDS011;35253;34.688;33.040;2023-06-14T08:05:25;9.82;;;6.68;;
49376;SDS011;35253;34.688;33.040;2023-06-14T08:07:51;7.45;;;6.15;;
49376;SDS011;35253;34.688;33.040;2023-06-14T08:10:17;9.55;;;7.18;;
49376;SDS011;35253;34.688;33.040;2023-06-14T08:12:43;11.77;;;7.32;;
49376;SDS011;35253;34.688;33.040;2023-06-14T08:15:09;11.75;;;8.38;;
49376;SDS011;35253;34.688;33.040;2023-06-14T08:17:35;11.77;;;5.85;;
49376;SDS011;35253;34.688;33.040;2023-06-14T08:20:01;9.90;;;7.50;;
49376;SDS011;35253;34.688;33.040;2023-06-14T08:22:29;15.05;;;7.50;;
49376;SDS011;35253;34.688;33.040;2023-06-14T08:24:57;8.80;;;6.30;;
49376;SDS011;35253;34.688;33.040;2023-06-14T08:27:23;18.02;;;7.93;;
49376;SDS011;35253;34.688;33.040;2023-06-14T08:29:49;7.82;;;5.50;;
49376;SDS011;35253;34.688;33.040;2023-06-14T08:32:15;9.05;;;5.45;;
49376;SDS011;35253;34.688;33.040;2023-06-14T08:34:40;7.82;;;5.45;;
49376;SDS011;35253;34.688;33.040;2023-06-14T08:37:06;7.40;;;5.25;;
49376;SDS011;35253;34.688;33.040;2023-06-14T08:39:32;9.10;;;6.10;;
49376;SDS011;35253;34.688;33.040;2023-06-14T08:41:58;8.13;;;5.90;;
49376;SDS011;35253;34.688;33.040;2023-06-14T08:44:28;11.18;;;7.38;;
49376;SDS011;35253;34.688;33.040;2023-06-14T08:46:54;8.90;;;5.57;;
49376;SDS011;35253;34.688;33.040;2023-06-14T08:49:22;6.93;;;5.53;;
49376;SDS011;35253;34.688;33.040;2023-06-14T08:51:52;7.97;;;6.07;;
49376;SDS011;35253;34.688;33.040;2023-06-14T08:54:22;9.38;;;5.40;;
49376;SDS011;35253;34.688;33.040;2023-06-14T08:56:49;9.15;;;4.65;;
49376;SDS011;35253;34.688;33.040;2023-06-14T08:59:16;9.88;;;5.13;;
49376;SDS011;35253;34.688;33.040;2023-06-14T09:01:43;8.02;;;5.25;;
49376;SDS011;35253;34.688;33.040;2023-06-14T09:04:10;11.38;;;4.80;;
49376;SDS011;35253;34.688;33.040;2023-06-14T09:06:36;9.35;;;5.35;;
49376;SDS011;35253;34.688;33.040;2023-06-14T09:09:02;15.80;;;8.13;;
49376;SDS011;35253;34.688;33.040;2023-06-14T09:11:29;9.63;;;4.80;;
49376;SDS011;35253;34.688;33.040;2023-06-14T09:13:56;13.45;;;8.35;;
49376;SDS011;35253;34.688;33.040;2023-06-14T09:16:21;9.57;;;5.40;;
49376;SDS011;35253;34.688;33.040;2023-06-14T09:18:47;6.80;;;4.30;;
49376;SDS011;35253;34.688;33.040;2023-06-14T09:21:14;9.52;;;5.18;;
49376;SDS011;35253;34.688;33.040;2023-06-14T09:23:45;10.40;;;5.72;;
49376;SDS011;35253;34.688;33.040;2023-06-14T09:26:15;10.23;;;7.82;;
49376;SDS011;35253;34.688;33.040;2023-06-14T09:28:46;11.57;;;5.03;;
49376;SDS011;35253;34.688;33.040;2023-06-14T09:31:14;11.63;;;4.97;;
49376;SDS011;35253;34.688;33.040;2023-06-14T09:33:42;5.35;;;4.35;;
49376;SDS011;35253;34.688;33.040;2023-06-14T09:36:16;13.88;;;5.38;;
49376;SDS011;35253;34.688;33.040;2023-06-14T09:39:02;9.73;;;7.22;;
49376;SDS011;35253;34.688;33.040;2023-06-14T09:43:59;8.75;;;3.70;;
49376;SDS011;35253;34.688;33.040;2023-06-14T09:46:27;9.75;;;4.38;;
49376;SDS011;35253;34.688;33.040;2023-06-14T09:48:59;4.75;;;3.60;;
49376;SDS011;35253;34.688;33.040;2023-06-14T09:51:26;11.23;;;4.25;;
49376;SDS011;35253;34.688;33.040;2023-06-14T09:53:54;14.07;;;6.28;;
49376;SDS011;35253;34.688;33.040;2023-06-14T09:56:34;4.70;;;4.00;;
49376;SDS011;35253;34.688;33.040;2023-06-14T09:59:03;13.10;;;4.97;;
49376;SDS011;35253;34.688;33.040;2023-06-14T10:01:32;17.98;;;6.28;;
49376;SDS011;35253;34.688;33.040;2023-06-14T10:04:04;5.18;;;3.60;;
49376;SDS011;35253;34.688;33.040;2023-06-14T10:06:30;9.43;;;5.13;;
49376;SDS011;35253;34.688;33.040;2023-06-14T10:08:59;14.40;;;3.70;;
49376;SDS011;35253;34.688;33.040;2023-06-14T10:11:26;3.58;;;2.92;;
49376;SDS011;35253;34.688;33.040;2023-06-14T10:13:53;9.13;;;3.00;;
49376;SDS011;35253;34.688;33.040;2023-06-14T10:16:28;4.68;;;2.90;;
49376;SDS011;35253;34.688;33.040;2023-06-14T10:21:57;6.85;;;3.47;;
49376;SDS011;35253;34.688;33.040;2023-06-14T10:24:28;16.17;;;9.02;;
49376;SDS011;35253;34.688;33.040;2023-06-14T10:26:58;13.18;;;4.85;;
49376;SDS011;35253;34.688;33.040;2023-06-14T10:29:28;12.13;;;7.15;;
49376;SDS011;35253;34.688;33.040;2023-06-14T10:31:58;12.80;;;5.03;;
49376;SDS011;35253;34.688;33.040;2023-06-14T10:34:25;8.45;;;4.57;;
49376;SDS011;35253;34.688;33.040;2023-06-14T10:37:05;10.18;;;4.13;;
49376;SDS011;35253;34.688;33.040;2023-06-14T10:39:42;11.93;;;3.60;;
49376;SDS011;35253;34.688;33.040;2023-06-14T10:42:10;8.55;;;4.63;;
49376;SDS011;35253;34.688;33.040;2023-06-14T10:44:38;8.88;;;4.35;;
49376;SDS011;35253;34.688;33.040;2023-06-14T10:47:08;5.65;;;3.10;;
49376;SDS011;35253;34.688;33.040;2023-06-14T10:52:17;8.45;;;4.15;;
49376;SDS011;35253;34.688;33.040;2023-06-14T10:54:56;6.95;;;3.10;;
49376;SDS011;35253;34.688;33.040;2023-06-14T10:57:38;9.57;;;3.85;;
49376;SDS011;35253;34.688;33.040;2023-06-14T11:00:09;5.88;;;3.00;;
49376;SDS011;35253;34.688;33.040;2023-06-14T11:05:56;9.02;;;3.80;;
49376;SDS011;35253;34.688;33.040;2023-06-14T11:10:52;5.80;;;2.95;;
49376;SDS011;35253;34.688;33.040;2023-06-14T11:13:21;9.27;;;3.03;;
49376;SDS011;35253;34.688;33.040;2023-06-14T11:15:50;11.40;;;3.05;;
49376;SDS011;35253;34.688;33.040;2023-06-14T11:18:18;5.18;;;3.22;;
49376;SDS011;35253;34.688;33.040;2023-06-14T11:20:45;4.60;;;2.88;;
49376;SDS011;35253;34.688;33.040;2023-06-14T11:23:11;14.05;;;2.83;;
49376;SDS011;35253;34.688;33.040;2023-06-14T11:25:37;5.18;;;3.08;;
49376;SDS011;35253;34.688;33.040;2023-06-14T11:28:03;8.80;;;4.30;;
49376;SDS011;35253;34.688;33.040;2023-06-14T11:30:28;8.88;;;3.15;;
49376;SDS011;35253;34.688;33.040;2023-06-14T11:32:55;9.40;;;3.63;;
49376;SDS011;35253;34.688;33.040;2023-06-14T11:35:21;18.65;;;5.70;;
49376;SDS011;35253;34.688;33.040;2023-06-14T11:37:48;5.63;;;3.60;;
49376;SDS011;35253;34.688;33.040;2023-06-14T11:40:17;9.43;;;3.10;;
49376;SDS011;35253;34.688;33.040;2023-06-14T11:42:43;6.38;;;3.97;;
49376;SDS011;35253;34.688;33.040;2023-06-14T11:45:09;6.72;;;3.90;;
49376;SDS011;35253;34.688;33.040;2023-06-14T11:47:36;6.63;;;3.10;;
49376;SDS011;35253;34.688;33.040;2023-06-14T11:50:04;13.93;;;4.63;;
49376;SDS011;35253;34.688;33.040;2023-06-14T11:52:35;10.48;;;3.47;;
49376;SDS011;35253;34.688;33.040;2023-06-14T11:55:04;8.45;;;3.45;;
49376;SDS011;35253;34.688;33.040;2023-06-14T11:57:33;16.10;;;6.35;;
49376;SDS011;35253;34.688;33.040;2023-06-14T12:00:02;10.13;;;3.85;;
49376;SDS011;35253;34.688;33.040;2023-06-14T12:02:31;7.10;;;4.55;;
49376;SDS011;35253;34.688;33.040;2023-06-14T12:05:03;14.55;;;4.65;;
49376;SDS011;35253;34.688;33.040;2023-06-14T12:07:36;12.82;;;5.00;;
49376;SDS011;35253;34.688;33.040;2023-06-14T12:12:36;7.43;;;4.38;;
49376;SDS011;35253;34.688;33.040;2023-06-14T12:15:06;11.05;;;3.80;;
49376;SDS011;35253;34.688;33.040;2023-06-14T12:17:33;10.90;;;5.07;;
49376;SDS011;35253;34.688;33.040;2023-06-14T12:20:04;10.95;;;5.65;;
49376;SDS011;35253;34.688;33.040;2023-06-14T12:22:58;8.05;;;3.97;;
49376;SDS011;35253;34.688;33.040;2023-06-14T12:25:26;10.90;;;5.63;;
49376;SDS011;35253;34.688;33.040;2023-06-14T12:27:57;10.63;;;4.93;;
49376;SDS011;35253;34.688;33.040;2023-06-14T12:30:23;11.10;;;4.15;;
49376;SDS011;35253;34.688;33.040;2023-06-14T12:32:49;10.07;;;3.80;;
49376;SDS011;35253;34.688;33.040;2023-06-14T12:35:16;10.68;;;4.00;;
49376;SDS011;35253;34.688;33.040;2023-06-14T12:37:44;9.57;;;4.93;;
49376;SDS011;35253;34.688;33.040;2023-06-14T12:40:11;10.15;;;4.30;;
49376;SDS011;35253;34.688;33.040;2023-06-14T12:42:37;8.15;;;3.80;;
49376;SDS011;35253;34.688;33.040;2023-06-14T12:45:03;6.35;;;3.85;;
49376;SDS011;35253;34.688;33.040;2023-06-14T12:47:29;9.13;;;4.30;;
49376;SDS011;35253;34.688;33.040;2023-06-14T12:49:55;11.07;;;4.70;;
49376;SDS011;35253;34.688;33.040;2023-06-14T12:52:21;12.23;;;5.80;;
49376;SDS011;35253;34.688;33.040;2023-06-14T12:54:47;15.30;;;6.30;;
49376;SDS011;35253;34.688;33.040;2023-06-14T12:57:12;8.85;;;4.95;;
49376;SDS011;35253;34.688;33.040;2023-06-14T12:59:38;13.02;;;5.68;;
49376;SDS011;35253;34.688;33.040;2023-06-14T13:02:10;13.60;;;4.88;;
49376;SDS011;35253;34.688;33.040;2023-06-14T13:04:37;11.40;;;5.93;;
49376;SDS011;35253;34.688;33.040;2023-06-14T13:07:03;15.40;;;5.80;;
49376;SDS011;35253;34.688;33.040;2023-06-14T13:09:29;12.00;;;5.20;;
49376;SDS011;35253;34.688;33.040;2023-06-14T13:11:55;16.58;;;6.55;;
49376;SDS011;35253;34.688;33.040;2023-06-14T13:14:20;8.63;;;5.57;;
49376;SDS011;35253;34.688;33.040;2023-06-14T13:16:46;16.15;;;5.65;;
49376;SDS011;35253;34.688;33.040;2023-06-14T13:19:11;19.83;;;8.18;;
49376;SDS011;35253;34.688;33.040;2023-06-14T13:21:37;11.65;;;6.72;;
49376;SDS011;35253;34.688;33.040;2023-06-14T13:24:03;20.20;;;7.80;;
49376;SDS011;35253;34.688;33.040;2023-06-14T13:26:29;16.60;;;6.90;;
49376;SDS011;35253;34.688;33.040;2023-06-14T13:28:55;24.23;;;8.85;;
49376;SDS011;35253;34.688;33.040;2023-06-14T13:31:20;21.25;;;8.13;;
49376;SDS011;35253;34.688;33.040;2023-06-14T13:33:46;15.98;;;5.50;;
49376;SDS011;35253;34.688;33.040;2023-06-14T13:36:12;26.63;;;10.27;;
49376;SDS011;35253;34.688;33.040;2023-06-14T13:38:37;16.17;;;8.95;;
49376;SDS011;35253;34.688;33.040;2023-06-14T13:41:03;18.02;;;5.75;;
49376;SDS011;35253;34.688;33.040;2023-06-14T13:43:29;22.70;;;6.75;;
49376;SDS011;35253;34.688;33.040;2023-06-14T13:45:55;16.25;;;6.78;;
49376;SDS011;35253;34.688;33.040;2023-06-14T13:48:21;15.35;;;6.68;;
49376;SDS011;35253;34.688;33.040;2023-06-14T13:50:47;19.25;;;6.57;;
49376;SDS011;35253;34.688;33.040;2023-06-14T13:53:12;22.98;;;8.00;;
49376;SDS011;35253;34.688;33.040;2023-06-14T13:55:39;13.82;;;7.20;;
49376;SDS011;35253;34.688;33.040;2023-06-14T13:58:05;12.57;;;6.63;;
49376;SDS011;35253;34.688;33.040;2023-06-14T14:00:31;15.18;;;6.68;;
49376;SDS011;35253;34.688;33.040;2023-06-14T14:02:57;20.20;;;7.38;;
49376;SDS011;35253;34.688;33.040;2023-06-14T14:05:25;18.80;;;8.27;;
49376;SDS011;35253;34.688;33.040;2023-06-14T14:07:54;17.38;;;6.95;;
49376;SDS011;35253;34.688;33.040;2023-06-14T14:10:22;19.70;;;8.40;;
49376;SDS011;35253;34.688;33.040;2023-06-14T14:12:50;18.60;;;7.80;;
49376;SDS011;35253;34.688;33.040;2023-06-14T14:15:16;17.63;;;6.45;;
49376;SDS011;35253;34.688;33.040;2023-06-14T14:17:42;22.85;;;7.25;;
49376;SDS011;35253;34.688;33.040;2023-06-14T14:20:08;14.40;;;6.00;;
49376;SDS011;35253;34.688;33.040;2023-06-14T14:22:34;12.45;;;5.57;;
49376;SDS011;35253;34.688;33.040;2023-06-14T14:25:00;12.38;;;6.07;;
49376;SDS011;35253;34.688;33.040;2023-06-14T14:27:25;15.20;;;6.43;;
49376;SDS011;35253;34.688;33.040;2023-06-14T14:29:51;15.38;;;6.78;;
49376;SDS011;35253;34.688;33.040;2023-06-14T14:32:17;16.42;;;8.20;;
49376;SDS011;35253;34.688;33.040;2023-06-14T14:34:42;14.90;;;7.05;;
49376;SDS011;35253;34.688;33.040;2023-06-14T14:37:08;17.50;;;6.32;;
49376;SDS011;35253;34.688;33.040;2023-06-14T14:39:34;15.60;;;6.28;;
49376;SDS011;35253;34.688;33.040;2023-06-14T14:42:00;17.45;;;5.72;;
49376;SDS011;35253;34.688;33.040;2023-06-14T14:44:25;14.32;;;6.35;;
49376;SDS011;35253;34.688;33.040;2023-06-14T14:46:51;19.63;;;6.85;;